This is the latest recevied weather packets stored in our database for station/object JA3YAI-13. If no packets are shown the sender has not sent any weather packets the latest 1 day(s).
| Time | Temp. | Humidity | Pressure | Rain* | Wind** | Luminosity | Snow |
|---|---|---|---|---|---|---|---|
| 1836274805 | 28.89° C | 81% | 1001.7 hPa | 0 mm | 1.34 m/s, 155° | - | - |
| 1836274205 | 28.33° C | 81% | 1001.6 hPa | 0 mm | 0.89 m/s, 248° | - | - |
| 1778051214 | 18.89° C | 72% | 1010.3 hPa | 0 mm | 0 m/s | - | - |
| 1778050614 | 19.44° C | 71% | 1010.1 hPa | 0 mm | 0 m/s | - | - |
| 1778050014 | 20° C | 70% | 1010.1 hPa | 0 mm | 0.45 m/s, 23° | - | - |
| 1778049413 | 20° C | 71% | 1010.2 hPa | 0 mm | 0 m/s | - | - |
| 1778048813 | 18.89° C | 71% | 1010.5 hPa | 0 mm | 0.45 m/s, 203° | - | - |
| 1778048213 | 19.44° C | 73% | 1010.4 hPa | 0 mm | 0.45 m/s, 147° | - | - |
| 1778047613 | 20° C | 74% | 1010.8 hPa | 0 mm | 0 m/s | - | - |
| 1778047013 | 20.56° C | 71% | 1010.8 hPa | 0 mm | 0 m/s | - | - |
| 1778046413 | 18.89° C | 75% | 1010.9 hPa | 0 mm | 0.45 m/s, 238° | - | - |
| 1778045813 | 19.44° C | 75% | 1011.4 hPa | 0 mm | 0.89 m/s, 203° | - | - |
| 1778045213 | 18.89° C | 73% | 1011.5 hPa | 0 mm | 0.45 m/s, 192° | - | - |
| 1778044613 | 18.89° C | 72% | 1011.3 hPa | 0 mm | 0.89 m/s, 158° | - | - |
| 1778044013 | 19.44° C | 72% | 1011.3 hPa | 0 mm | 0 m/s | - | - |
| 1778043413 | 18.33° C | 74% | 1011.4 hPa | 0 mm | 0 m/s | - | - |
| 1778042813 | 17.78° C | 75% | 1011.7 hPa | 0 mm | 0 m/s | - | - |
| 1778042212 | 18.33° C | 73% | 1011.2 hPa | 0 mm | 0.45 m/s, 338° | - | - |
| 1778041612 | 18.33° C | 74% | 1011.4 hPa | 0 mm | 0.45 m/s, 338° | - | - |
| 1778041012 | 18.33° C | 76% | 1011.5 hPa | 0 mm | 0 m/s | - | - |
| 1778040412 | 18.33° C | 75% | 1012.1 hPa | 0 mm | 0 m/s | - | - |
| 1778039812 | 18.33° C | 74% | 1012.3 hPa | 0 mm | 0.45 m/s, 248° | - | - |
| 1778039212 | 18.33° C | 73% | 1012.2 hPa | 0 mm | 0 m/s | - | - |
| 1778038614 | 18.89° C | 72% | 1012.2 hPa | 0 mm | 0 m/s | - | - |
| 1778038014 | 18.89° C | 72% | 1012.3 hPa | 0 mm | 0 m/s | - | - |
* Rain latest hour (hover to see other rain measurements)
** Current wind speed in m/s (hover to see current wind gust speed)